createdAt,value
2022-08-20T00:00:03.208Z,1013.46
2022-08-20T00:05:02.651Z,1013.54
2022-08-20T00:10:02.245Z,1013.67
2022-08-20T00:15:02.954Z,1013.65
2022-08-20T00:20:02.707Z,1013.66
2022-08-20T00:25:02.403Z,1013.49
2022-08-20T00:30:02.604Z,1013.51
2022-08-20T00:35:02.230Z,1013.47
2022-08-20T00:40:02.936Z,1013.45
2022-08-20T00:45:02.808Z,1013.46
2022-08-20T00:50:02.683Z,1013.56
2022-08-20T00:55:03.682Z,1013.59
2022-08-20T01:00:03.075Z,1013.63
2022-08-20T01:05:02.425Z,1013.72
2022-08-20T01:10:03.418Z,1013.6
2022-08-20T01:15:02.723Z,1013.61
2022-08-20T01:20:02.463Z,1013.62
2022-08-20T01:25:03.090Z,1013.47
2022-08-20T01:30:06.055Z,1013.55
2022-08-20T01:35:02.749Z,1013.56
2022-08-20T01:40:02.488Z,1013.62
2022-08-20T01:45:03.287Z,1013.61
2022-08-20T01:50:03.041Z,1013.53
2022-08-20T01:55:04.021Z,1013.69
2022-08-20T02:00:03.198Z,1013.62
2022-08-20T02:05:02.782Z,1013.79
2022-08-20T02:10:02.549Z,1013.7
2022-08-20T02:15:03.221Z,1013.77
2022-08-20T02:20:02.840Z,1013.81
2022-08-20T02:25:02.674Z,1013.85
2022-08-20T02:30:03.258Z,1013.84
2022-08-20T02:35:03.005Z,1013.79
2022-08-20T02:40:02.890Z,1013.82
2022-08-20T02:45:02.559Z,1013.83
2022-08-20T02:50:02.274Z,1013.84
2022-08-20T02:55:04.058Z,1013.84
2022-08-20T03:00:02.486Z,1013.81
2022-08-20T03:05:03.212Z,1013.81
2022-08-20T03:10:02.331Z,1013.72
2022-08-20T03:15:03.024Z,1013.68
2022-08-20T03:20:03.175Z,1013.6
2022-08-20T03:25:02.798Z,1013.7
2022-08-20T03:30:02.571Z,1013.65
2022-08-20T03:35:02.282Z,1013.59
2022-08-20T03:40:02.974Z,1013.6
2022-08-20T03:45:02.607Z,1013.66
2022-08-20T03:50:02.222Z,1013.67
2022-08-20T03:55:04.395Z,1013.69
2022-08-20T04:00:02.567Z,1013.75
2022-08-20T04:05:03.165Z,1013.78
2022-08-20T04:10:02.206Z,1013.75
2022-08-20T04:15:02.906Z,1013.78
2022-08-20T04:20:02.254Z,1013.76
2022-08-20T04:25:02.938Z,1013.76
2022-08-20T04:30:02.340Z,1013.74
2022-08-20T04:35:03.038Z,1013.84
2022-08-20T04:40:02.314Z,1013.77
2022-08-20T04:45:02.969Z,1013.96
2022-08-20T04:50:02.624Z,1013.96
2022-08-20T04:55:05.956Z,1014.13
2022-08-20T05:00:02.891Z,1014.13
2022-08-20T05:05:02.830Z,1014.23
2022-08-20T05:10:02.275Z,1014.18
2022-08-20T05:15:02.398Z,1014.24
2022-08-20T05:20:03.065Z,1014.15
2022-08-20T05:25:02.365Z,1014.12
2022-08-20T05:30:02.261Z,1014.18
2022-08-20T05:35:02.946Z,1014.18
2022-08-20T05:40:02.567Z,1014.28
2022-08-20T05:45:02.998Z,1014.48
2022-08-20T05:50:03.010Z,1014.46
2022-08-20T05:55:04.463Z,1014.39
2022-08-20T06:00:02.828Z,1014.39
2022-08-20T06:05:02.443Z,1014.44
2022-08-20T06:10:02.318Z,1014.35
2022-08-20T06:15:02.991Z,1014.52
2022-08-20T06:20:02.538Z,1014.37
2022-08-20T06:25:03.203Z,1014.5
2022-08-20T06:30:02.275Z,1014.53
2022-08-20T06:35:03.253Z,1014.56
2022-08-20T06:40:02.574Z,1014.63
2022-08-20T06:45:02.489Z,1014.78
2022-08-20T06:50:03.203Z,1014.72
2022-08-20T06:55:03.943Z,1014.79
2022-08-20T07:00:03.130Z,1014.91
2022-08-20T07:05:02.462Z,1014.73
2022-08-20T07:10:02.295Z,1014.76
2022-08-20T07:15:02.951Z,1014.89
2022-08-20T07:20:02.447Z,1014.93
2022-08-20T07:25:03.000Z,1014.99
2022-08-20T07:30:02.306Z,1015.06
2022-08-20T07:35:03.124Z,1015.15
2022-08-20T07:40:02.512Z,1015.14
2022-08-20T07:45:03.378Z,1015.13
2022-08-20T07:50:02.620Z,1015.21
2022-08-20T07:55:03.496Z,1015.2
2022-08-20T08:00:03.023Z,1015.25
2022-08-20T08:05:02.786Z,1015.39
2022-08-20T08:10:02.402Z,1015.4
2022-08-20T08:15:03.174Z,1015.42
2022-08-20T08:20:02.680Z,1015.56
2022-08-20T08:25:02.239Z,1015.47
2022-08-20T08:30:02.925Z,1015.54
2022-08-20T08:35:02.562Z,1015.51
2022-08-20T08:40:02.286Z,1015.62
2022-08-20T08:45:02.879Z,1015.56
2022-08-20T08:50:02.547Z,1015.58
2022-08-20T08:55:03.910Z,1015.68
2022-08-20T09:00:03.729Z,1015.48
2022-08-20T09:05:02.622Z,1015.55
2022-08-20T09:10:02.345Z,1015.51
2022-08-20T09:15:03.250Z,1015.47
2022-08-20T09:20:02.593Z,1015.52
2022-08-20T09:25:02.403Z,1015.59
2022-08-20T09:30:03.087Z,1015.59
2022-08-20T09:35:04.800Z,1015.63
2022-08-20T09:40:03.139Z,1015.67
2022-08-20T09:45:02.666Z,1015.61
2022-08-20T09:50:02.431Z,1015.6
2022-08-20T09:55:04.140Z,1015.56
2022-08-20T10:00:02.820Z,1015.55
2022-08-20T10:05:02.601Z,1015.43
2022-08-20T10:10:02.403Z,1015.42
2022-08-20T10:15:03.087Z,1015.55
2022-08-20T10:20:02.707Z,1015.57
2022-08-20T10:25:03.042Z,1015.54
2022-08-20T10:30:02.906Z,1015.61
2022-08-20T10:35:02.799Z,1015.59
2022-08-20T10:40:02.505Z,1015.66
2022-08-20T10:45:03.116Z,1015.58
2022-08-20T10:50:02.505Z,1015.58
2022-08-20T10:55:03.860Z,1015.6
2022-08-20T11:00:02.896Z,1015.66
2022-08-20T11:05:02.409Z,1015.63
2022-08-20T11:10:02.258Z,1015.7
2022-08-20T11:15:02.929Z,1015.65
2022-08-20T11:20:02.470Z,1015.72
2022-08-20T11:25:03.075Z,1015.81
2022-08-20T11:30:02.819Z,1015.84
2022-08-20T11:35:14.005Z,1015.84
2022-08-20T11:40:02.674Z,1015.88
2022-08-20T11:45:02.337Z,1015.86
2022-08-20T11:50:02.923Z,1015.84
2022-08-20T11:55:03.479Z,1015.78
2022-08-20T12:00:03.000Z,1015.75
2022-08-20T12:05:02.683Z,1015.64
2022-08-20T12:10:02.392Z,1015.67
2022-08-20T12:15:03.163Z,1015.66
2022-08-20T12:20:02.590Z,1015.67
2022-08-20T12:25:02.338Z,1015.74
2022-08-20T12:30:02.995Z,1015.75
2022-08-20T12:35:02.463Z,1015.69
2022-08-20T12:40:03.182Z,1015.8
2022-08-20T12:45:02.816Z,1015.86
2022-08-20T12:50:05.299Z,1015.87
2022-08-20T12:55:04.623Z,1015.95
2022-08-20T13:00:03.652Z,1015.89
2022-08-20T13:05:04.790Z,1015.97
2022-08-20T13:10:02.941Z,1015.89
2022-08-20T13:15:02.356Z,1015.97
2022-08-20T13:20:03.012Z,1016.02
2022-08-20T13:25:02.462Z,1016.02
2022-08-20T13:30:03.140Z,1016.01
2022-08-20T13:35:02.559Z,1015.94
2022-08-20T13:40:03.259Z,1015.94
2022-08-20T13:45:02.835Z,1015.97
2022-08-20T13:50:02.589Z,1015.96
2022-08-20T13:55:07.267Z,1016.09
2022-08-20T14:00:02.820Z,1015.96
2022-08-20T14:05:02.432Z,1015.8
2022-08-20T14:10:02.282Z,1015.82
2022-08-20T14:15:02.943Z,1015.89
2022-08-20T14:20:02.680Z,1015.82
2022-08-20T14:25:02.315Z,1015.82
2022-08-20T14:30:03.009Z,1015.92
2022-08-20T14:35:02.609Z,1015.87
2022-08-20T14:40:02.474Z,1015.81
2022-08-20T14:45:02.932Z,1015.81
2022-08-20T14:50:02.646Z,1015.84
2022-08-20T14:55:03.757Z,1015.85
2022-08-20T15:00:03.071Z,1015.92
2022-08-20T15:05:02.488Z,1015.82
2022-08-20T15:10:02.353Z,1015.74
2022-08-20T15:15:04.731Z,1015.69
2022-08-20T15:20:02.991Z,1015.75
2022-08-20T15:25:02.565Z,1015.68
2022-08-20T15:30:03.177Z,1015.75
2022-08-20T15:35:02.415Z,1015.75
2022-08-20T15:40:03.103Z,1015.81
2022-08-20T15:45:02.850Z,1015.83
2022-08-20T15:50:02.420Z,1015.83
2022-08-20T15:55:04.411Z,1015.9
2022-08-20T16:00:02.551Z,1015.75
2022-08-20T16:05:03.145Z,1015.76
2022-08-20T16:10:02.991Z,1015.82
2022-08-20T16:15:02.653Z,1015.87
2022-08-20T16:20:02.332Z,1016.01
2022-08-20T16:25:02.805Z,1016.02
2022-08-20T16:30:02.458Z,1016.07
2022-08-20T16:35:03.133Z,1016.11
2022-08-20T16:40:02.866Z,1016.08
2022-08-20T16:45:02.465Z,1016.12
2022-08-20T16:50:03.095Z,1016.14
2022-08-20T16:55:03.682Z,1016.11
2022-08-20T17:00:03.151Z,1016.19
2022-08-20T17:05:02.611Z,1016.21
2022-08-20T17:10:02.874Z,1016.23
2022-08-20T17:15:02.972Z,1016.28
2022-08-20T17:20:02.509Z,1016.32
2022-08-20T17:25:03.169Z,1016.34
2022-08-20T17:30:02.942Z,1016.35
2022-08-20T17:35:02.903Z,1016.32
2022-08-20T17:40:02.590Z,1016.36
2022-08-20T17:45:03.233Z,1016.41
2022-08-20T17:50:03.219Z,1016.39
2022-08-20T17:55:03.677Z,1016.38
2022-08-20T18:00:03.102Z,1016.36
2022-08-20T18:05:03.029Z,1016.42
2022-08-20T18:10:02.596Z,1016.49
2022-08-20T18:15:02.286Z,1016.59
2022-08-20T18:20:02.914Z,1016.59
2022-08-20T18:25:02.533Z,1016.47
2022-08-20T18:30:03.203Z,1016.59
2022-08-20T18:35:04.014Z,1016.55
2022-08-20T18:40:02.651Z,1016.59
2022-08-20T18:45:02.311Z,1016.52
2022-08-20T18:50:02.906Z,1016.56
2022-08-20T18:55:05.386Z,1016.66
2022-08-20T19:00:03.221Z,1016.64
2022-08-20T19:05:02.841Z,1016.68
2022-08-20T19:10:02.442Z,1016.66
2022-08-20T19:15:07.621Z,1016.74
2022-08-20T19:20:03.057Z,1016.75
2022-08-20T19:25:03.092Z,1016.85
2022-08-20T19:30:02.250Z,1016.84
2022-08-20T19:35:02.836Z,1016.77
2022-08-20T19:40:03.214Z,1016.82
2022-08-20T19:45:02.684Z,1016.79
2022-08-20T19:50:02.560Z,1016.83
2022-08-20T19:55:04.680Z,1016.89
2022-08-20T20:00:02.691Z,1016.82
2022-08-20T20:05:02.289Z,1016.84
2022-08-20T20:10:02.945Z,1016.93
2022-08-20T20:15:02.599Z,1016.89
2022-08-20T20:20:02.236Z,1016.83
2022-08-20T20:25:02.860Z,1016.89
2022-08-20T20:30:03.043Z,1016.92
2022-08-20T20:35:02.619Z,1016.82
2022-08-20T20:40:02.290Z,1016.84
2022-08-20T20:45:03.083Z,1016.81
2022-08-20T20:50:02.616Z,1016.86
2022-08-20T20:55:03.588Z,1016.79
2022-08-20T21:00:03.215Z,1016.83
2022-08-20T21:05:02.680Z,1016.91
2022-08-20T21:10:02.554Z,1016.9
2022-08-20T21:15:03.243Z,1016.76
2022-08-20T21:20:02.999Z,1016.79
2022-08-20T21:25:02.615Z,1016.8
2022-08-20T21:30:02.392Z,1016.76
2022-08-20T21:35:02.991Z,1016.8
2022-08-20T21:40:02.564Z,1016.77
2022-08-20T21:45:02.518Z,1016.71
2022-08-20T21:50:03.071Z,1016.77
2022-08-20T21:55:03.788Z,1016.78
2022-08-20T22:00:02.676Z,1016.8
2022-08-20T22:05:02.248Z,1016.78
2022-08-20T22:10:02.883Z,1016.66
2022-08-20T22:15:02.923Z,1016.7
2022-08-20T22:20:02.667Z,1016.72
2022-08-20T22:25:07.460Z,1016.67
2022-08-20T22:30:02.959Z,1016.7
2022-08-20T22:35:02.662Z,1016.66
2022-08-20T22:40:04.097Z,1016.5
2022-08-20T22:45:02.583Z,1016.45
2022-08-20T22:50:03.125Z,1016.46
2022-08-20T22:55:06.371Z,1016.55
2022-08-20T23:00:02.450Z,1016.59
2022-08-20T23:05:03.192Z,1016.54
2022-08-20T23:10:02.561Z,1016.55
2022-08-20T23:15:03.344Z,1016.5
2022-08-20T23:20:02.739Z,1016.5
2022-08-20T23:25:03.119Z,1016.56
2022-08-20T23:30:03.015Z,1016.5
2022-08-20T23:35:02.385Z,1016.56
2022-08-20T23:40:02.249Z,1016.44
2022-08-20T23:45:03.042Z,1016.43
2022-08-20T23:50:02.538Z,1016.51
2022-08-20T23:55:04.691Z,1016.41
